Time;durP1;ratioP1;P1;durP2;ratioP2;P2;SDS_P1;SDS_P2;PMS_P1;PMS_P2;Temp;Humidity;BMP_temperature;BMP_pressure;BME280_temperature;BME280_humidity;BME280_pressure;Samples;Min_cycle;Max_cycle;Signal;HPM_P1;HPM_P2
2024/01/16 00:00:31;;;;;;;6.40;2.85;;;-0.60;99.90;;;;;;4952332;29;20054;-59
2024/01/16 00:02:58;;;;;;;4.20;2.13;;;-0.70;99.90;;;;;;4949623;29;20043;-60
2024/01/16 00:05:24;;;;;;;7.22;2.50;;;-0.70;99.90;;;;;;4952258;28;20043;-59
2024/01/16 00:07:51;;;;;;;4.55;2.40;;;-0.70;99.90;;;;;;4952525;29;20052;-60
2024/01/16 00:10:18;;;;;;;8.07;2.85;;;-0.80;99.90;;;;;;4957187;28;20503;-60
2024/01/16 00:12:45;;;;;;;7.82;2.85;;;-0.80;99.90;;;;;;4951603;28;20041;-61
2024/01/16 00:15:11;;;;;;;5.78;3.00;;;-0.90;99.90;;;;;;4960211;28;20040;-59
2024/01/16 00:17:38;;;;;;;5.55;2.53;;;-0.90;99.90;;;;;;4961328;28;20035;-58
2024/01/16 00:20:06;;;;;;;6.20;2.88;;;-1.00;99.90;;;;;;4944560;29;20510;-60
2024/01/16 00:22:32;;;;;;;7.13;2.70;;;-1.00;99.90;;;;;;4959962;28;20070;-60
2024/01/16 00:24:59;;;;;;;7.07;3.15;;;-1.00;99.90;;;;;;4959871;28;20291;-59
2024/01/16 00:27:26;;;;;;;7.75;3.15;;;-1.10;99.90;;;;;;4952292;28;20054;-61
2024/01/16 00:29:53;;;;;;;5.13;2.65;;;-1.20;99.90;;;;;;4954469;29;20047;-59
2024/01/16 00:32:19;;;;;;;7.05;3.03;;;-1.20;99.90;;;;;;4955791;29;20043;-59
2024/01/16 00:34:46;;;;;;;6.55;3.10;;;-1.20;99.90;;;;;;4956270;28;20035;-59
2024/01/16 00:37:13;;;;;;;5.88;2.95;;;-1.30;99.90;;;;;;4955875;29;20075;-60
2024/01/16 00:39:40;;;;;;;5.97;2.50;;;-1.20;99.90;;;;;;4949165;29;20039;-60
2024/01/16 00:42:07;;;;;;;5.43;2.50;;;-1.20;99.90;;;;;;4955499;29;20065;-60
2024/01/16 00:44:34;;;;;;;6.53;3.15;;;-1.30;99.90;;;;;;4948082;29;20057;-56
2024/01/16 00:47:01;;;;;;;6.93;2.60;;;-1.30;99.90;;;;;;4955835;29;20047;-60
2024/01/16 00:49:29;;;;;;;;;;;-1.30;99.90;;;;;;4948288;29;20408;-60
2024/01/16 00:51:56;;;;;;;5.95;2.50;;;-1.30;99.90;;;;;;4943494;28;19973;-59
2024/01/16 00:54:22;;;;;;;4.60;2.38;;;-1.40;99.90;;;;;;4954107;28;20122;-56
2024/01/16 00:56:50;;;;;;;5.60;2.65;;;-1.40;99.90;;;;;;4954688;29;20484;-60
2024/01/16 00:59:17;;;;;;;5.93;3.00;;;-1.50;99.90;;;;;;4954984;29;20043;-60
2024/01/16 01:01:43;;;;;;;7.75;3.15;;;-1.50;99.90;;;;;;4948946;29;20039;-59
2024/01/16 01:04:10;;;;;;;4.55;2.22;;;-1.60;99.90;;;;;;4956086;28;20047;-60
2024/01/16 01:06:37;;;;;;;5.93;2.50;;;-1.60;99.90;;;;;;4948548;28;20429;-60
2024/01/16 01:09:04;;;;;;;5.43;2.53;;;-1.60;99.90;;;;;;4955668;29;20074;-59
2024/01/16 01:11:30;;;;;;;6.07;2.83;;;-1.70;99.90;;;;;;4955140;28;20043;-59
2024/01/16 01:13:57;;;;;;;5.78;2.83;;;-1.70;99.90;;;;;;4950982;28;20067;-61
2024/01/16 01:16:24;;;;;;;9.45;3.17;;;-1.80;99.90;;;;;;4953533;29;20067;-59
2024/01/16 01:18:51;;;;;;;8.50;3.90;;;-1.90;99.90;;;;;;4955185;29;20047;-60
2024/01/16 01:21:18;;;;;;;;;;;-1.90;99.90;;;;;;4944220;29;20048;-60
2024/01/16 01:23:45;;;;;;;9.98;3.30;;;-2.00;99.90;;;;;;4949288;28;20280;-58
2024/01/16 01:26:17;;;;;;;10.70;2.90;;;-2.20;99.90;;;;;;4955244;29;20134;-60
2024/01/16 01:28:44;;;;;;;10.32;3.10;;;-2.40;99.90;;;;;;4947224;29;20053;-59
2024/01/16 01:31:12;;;;;;;8.68;3.10;;;-2.50;99.90;;;;;;4948052;29;20056;-60
2024/01/16 01:33:42;;;;;;;6.93;3.00;;;-2.40;99.90;;;;;;4938791;28;20043;-58
2024/01/16 01:36:09;;;;;;;9.38;2.45;;;-2.50;99.90;;;;;;4949022;29;20054;-61
2024/01/16 01:38:36;;;;;;;6.00;2.78;;;-2.60;99.90;;;;;;4955026;29;20058;-59
2024/01/16 01:41:03;;;;;;;4.45;2.03;;;-2.70;99.90;;;;;;4936408;29;20445;-57
2024/01/16 01:43:34;;;;;;;6.45;2.85;;;-2.80;99.90;;;;;;4952500;28;20051;-58
2024/01/16 01:46:15;;;;;;;;;;;-2.90;99.90;;;;;;4949881;29;20457;-59
2024/01/16 01:48:42;;;;;;;6.55;2.13;;;-3.00;99.90;;;;;;4954769;29;20017;-60
2024/01/16 01:51:13;;;;;;;6.20;2.45;;;-3.20;99.90;;;;;;4954695;29;20102;-60
2024/01/16 01:53:43;;;;;;;5.35;2.28;;;-3.30;99.90;;;;;;4948379;28;20039;-60
2024/01/16 01:56:15;;;;;;;5.50;2.17;;;-3.40;99.90;;;;;;4955144;29;20141;-60
2024/01/16 01:58:47;;;;;;;4.93;2.35;;;-3.40;99.90;;;;;;4954089;29;20043;-60
2024/01/16 02:01:16;;;;;;;7.57;2.92;;;-3.50;99.90;;;;;;4946590;28;20050;-59
2024/01/16 02:03:44;;;;;;;7.32;2.63;;;-3.60;99.90;;;;;;4954388;28;20047;-60
2024/01/16 02:06:16;;;;;;;5.20;2.75;;;-3.60;99.90;;;;;;4953373;29;20051;-59
2024/01/16 02:08:44;;;;;;;4.13;2.20;;;-3.70;99.90;;;;;;4951084;28;20099;-60
2024/01/16 02:11:12;;;;;;;3.60;2.20;;;-3.70;99.90;;;;;;4959498;28;20428;-60
2024/01/16 02:13:38;;;;;;;;;;;-3.70;99.90;;;;;;4962725;28;20049;-60
2024/01/16 02:16:05;;;;;;;6.00;2.30;;;-3.80;99.90;;;;;;4953964;28;19939;-59
2024/01/16 02:18:32;;;;;;;;;;;-3.90;99.90;;;;;;4955979;28;20043;-58
2024/01/16 02:21:06;;;;;;;6.80;2.70;;;-3.90;99.90;;;;;;4951703;28;19978;-60
2024/01/16 02:23:34;;;;;;;5.88;2.97;;;-3.90;99.90;;;;;;4954350;28;20496;-59
2024/01/16 02:26:02;;;;;;;5.90;2.58;;;-4.00;99.90;;;;;;4954116;29;20069;-60
2024/01/16 02:28:29;;;;;;;5.75;2.72;;;-4.10;99.90;;;;;;4954092;29;20051;-60
2024/01/16 02:30:56;;;;;;;6.78;2.88;;;-4.20;99.90;;;;;;4951308;29;20051;-60
2024/01/16 02:33:23;;;;;;;6.53;2.80;;;-4.20;99.90;;;;;;4953921;29;20126;-60
2024/01/16 02:35:50;;;;;;;;;;;-4.10;99.90;;;;;;4947978;28;20061;-60
2024/01/16 02:38:17;;;;;;;5.32;2.60;;;-4.00;99.90;;;;;;4946631;28;19922;-59
2024/01/16 02:40:43;;;;;;;6.20;2.70;;;-4.00;99.90;;;;;;4953625;29;20065;-60
2024/01/16 02:43:10;;;;;;;6.10;1.83;;;-4.10;99.90;;;;;;4952880;29;20166;-59
2024/01/16 02:45:37;;;;;;;4.70;2.58;;;-4.10;99.90;;;;;;4953651;28;20074;-59
2024/01/16 02:48:05;;;;;;;5.45;2.17;;;-4.10;99.90;;;;;;4941441;29;20509;-57
2024/01/16 02:50:32;;;;;;;9.88;2.95;;;-4.10;99.90;;;;;;4949441;28;20044;-58
2024/01/16 02:52:59;;;;;;;5.53;2.45;;;-4.10;99.90;;;;;;4953443;29;20050;-60
2024/01/16 02:55:25;;;;;;;4.88;2.28;;;-4.10;99.90;;;;;;4953971;28;20043;-55
2024/01/16 02:57:52;;;;;;;6.28;2.67;;;-4.00;99.90;;;;;;4951520;29;20035;-59
2024/01/16 03:00:19;;;;;;;7.97;2.92;;;-4.10;99.90;;;;;;4950237;29;20051;-59
2024/01/16 03:02:46;;;;;;;6.22;2.53;;;-4.10;99.90;;;;;;4950045;29;20051;-59
2024/01/16 03:05:15;;;;;;;7.22;2.50;;;-4.10;99.90;;;;;;4953789;28;20055;-59
2024/01/16 03:07:42;;;;;;;6.00;2.42;;;-4.00;99.90;;;;;;4953130;29;20051;-58
2024/01/16 03:10:09;;;;;;;7.18;2.95;;;-4.20;99.90;;;;;;4949825;28;20051;-61
2024/01/16 03:12:36;;;;;;;6.43;2.60;;;-4.20;99.90;;;;;;4958682;28;20393;-58
2024/01/16 03:15:03;;;;;;;8.00;3.38;;;-4.20;99.90;;;;;;4961225;28;20516;-58
2024/01/16 03:17:30;;;;;;;;;;;-4.20;99.90;;;;;;4953793;28;20126;-59
2024/01/16 03:19:57;;;;;;;6.18;2.90;;;-4.20;99.90;;;;;;4948863;28;20447;-60
2024/01/16 03:22:24;;;;;;;8.23;3.25;;;-4.10;99.90;;;;;;4950163;29;20047;-58
2024/01/16 03:24:51;;;;;;;8.02;2.60;;;-4.20;99.90;;;;;;4947151;28;20047;-58
2024/01/16 03:27:18;;;;;;;8.35;2.90;;;-4.20;99.90;;;;;;4953312;29;20051;-59
2024/01/16 03:29:45;;;;;;;8.10;3.15;;;-4.30;99.90;;;;;;4948123;29;20062;-60
2024/01/16 03:32:12;;;;;;;6.65;2.60;;;-4.30;99.90;;;;;;4953168;29;20043;-59
2024/01/16 03:34:40;;;;;;;6.47;2.95;;;-4.30;99.90;;;;;;4946522;28;20047;-56
2024/01/16 03:37:07;;;;;;;5.65;2.60;;;-4.20;99.90;;;;;;4952647;29;20106;-59
2024/01/16 03:39:33;;;;;;;8.15;3.10;;;-4.20;99.90;;;;;;4952460;29;20051;-60
2024/01/16 03:42:00;;;;;;;8.40;2.95;;;-4.20;99.90;;;;;;4951378;29;20047;-59
2024/01/16 03:44:27;;;;;;;7.03;2.88;;;-4.20;99.90;;;;;;4944140;29;20051;-59
2024/01/16 03:46:55;;;;;;;7.20;3.30;;;-4.20;99.90;;;;;;4952806;29;20051;-60
2024/01/16 03:49:21;;;;;;;4.85;2.45;;;-4.20;99.90;;;;;;4952767;29;20070;-60
2024/01/16 03:51:48;;;;;;;6.38;2.80;;;-4.20;99.90;;;;;;4951103;29;20062;-59
2024/01/16 03:54:15;;;;;;;5.45;2.45;;;-4.20;99.90;;;;;;4943751;29;20047;-60
2024/01/16 03:56:42;;;;;;;5.75;2.70;;;-4.20;99.90;;;;;;4935812;29;20082;-60
2024/01/16 03:59:09;;;;;;;7.47;2.65;;;-4.20;99.90;;;;;;4951953;29;20129;-58
2024/01/16 04:01:39;;;;;;;6.55;3.40;;;-4.20;99.90;;;;;;4952700;29;20053;-59
2024/01/16 04:04:06;;;;;;;8.98;3.05;;;-4.10;99.90;;;;;;4948431;28;20408;-60
2024/01/16 04:06:33;;;;;;;9.65;2.92;;;-4.10;99.90;;;;;;4952695;29;20058;-57
2024/01/16 04:09:01;;;;;;;5.63;3.17;;;-4.10;99.90;;;;;;4952551;29;20040;-58
2024/01/16 04:11:28;;;;;;;;;;;-4.20;99.90;;;;;;4947505;29;20043;-59
2024/01/16 04:13:55;;;;;;;9.98;2.75;;;-4.30;99.90;;;;;;4952461;28;20017;-59
2024/01/16 04:16:22;;;;;;;10.27;3.20;;;-4.30;99.90;;;;;;4948205;29;20046;-59
2024/01/16 04:18:49;;;;;;;6.90;2.88;;;-4.30;99.90;;;;;;4952648;29;20047;-60
2024/01/16 04:21:15;;;;;;;11.07;3.00;;;-4.30;99.90;;;;;;4949548;29;20039;-59
2024/01/16 04:23:46;;;;;;;8.65;2.90;;;-4.30;99.90;;;;;;4945182;28;20083;-60
2024/01/16 04:26:13;;;;;;;7.25;2.42;;;-4.30;99.90;;;;;;4944846;29;20053;-59
2024/01/16 04:28:40;;;;;;;;;;;-4.30;99.90;;;;;;4952390;29;20118;-57
2024/01/16 04:31:07;;;;;;;8.57;2.67;;;-4.30;99.90;;;;;;4944209;29;19982;-59
2024/01/16 04:33:34;;;;;;;11.10;2.92;;;-4.20;99.90;;;;;;4952221;28;20051;-59
2024/01/16 04:36:01;;;;;;;7.38;2.78;;;-4.20;99.90;;;;;;4943923;29;20031;-59
2024/01/16 04:38:27;;;;;;;7.45;3.00;;;-4.20;99.90;;;;;;4948419;29;20257;-60
2024/01/16 04:40:55;;;;;;;7.57;3.10;;;-4.10;99.90;;;;;;4951426;29;20066;-58
2024/01/16 04:43:22;;;;;;;8.25;3.25;;;-4.10;99.90;;;;;;4934254;29;20511;-58
2024/01/16 04:45:49;;;;;;;6.68;2.45;;;-4.10;99.90;;;;;;4951376;28;20058;-59
2024/01/16 04:48:16;;;;;;;9.88;3.28;;;-4.00;99.90;;;;;;4947827;29;20326;-59
2024/01/16 04:50:44;;;;;;;6.28;2.85;;;-4.10;99.90;;;;;;4943659;29;20047;-60
2024/01/16 04:53:11;;;;;;;7.47;3.20;;;-4.10;99.90;;;;;;4940506;29;20043;-60
2024/01/16 04:55:38;;;;;;;6.72;2.78;;;-4.10;99.90;;;;;;4952203;28;20063;-60
2024/01/16 04:58:05;;;;;;;6.35;3.15;;;-4.10;99.90;;;;;;4944805;29;20047;-60
2024/01/16 05:00:32;;;;;;;6.63;2.83;;;-4.10;99.90;;;;;;4952437;29;20043;-60
2024/01/16 05:02:59;;;;;;;9.63;3.25;;;-4.00;99.90;;;;;;4948045;29;20044;-60
2024/01/16 05:05:26;;;;;;;12.60;3.83;;;-4.10;99.90;;;;;;4952201;28;20118;-59
2024/01/16 05:07:56;;;;;;;8.07;3.35;;;-4.10;99.90;;;;;;4952137;29;20059;-60
2024/01/16 05:10:22;;;;;;;7.03;3.13;;;-4.20;99.90;;;;;;4946262;29;20062;-59
2024/01/16 05:12:49;;;;;;;9.65;2.83;;;-4.20;99.90;;;;;;4952360;29;20374;-59
2024/01/16 05:15:16;;;;;;;10.75;4.72;;;-4.10;99.90;;;;;;4952244;28;20485;-59
2024/01/16 05:17:43;;;;;;;11.00;4.43;;;-4.10;99.90;;;;;;4955395;29;20035;-59
2024/01/16 05:20:10;;;;;;;8.20;4.30;;;-4.00;99.90;;;;;;4952578;29;20400;-61
2024/01/16 05:22:38;;;;;;;13.13;5.53;;;-4.00;99.90;;;;;;4945078;29;20185;-59
2024/01/16 05:25:07;;;;;;;13.95;5.57;;;-3.90;99.90;;;;;;4953816;28;20130;-58
2024/01/16 05:27:34;;;;;;;11.20;5.88;;;-3.90;99.90;;;;;;4946654;29;20509;-60
2024/01/16 05:30:01;;;;;;;;;;;-3.90;99.90;;;;;;4955310;29;20035;-60
2024/01/16 05:32:28;;;;;;;11.15;4.82;;;-3.80;99.90;;;;;;4952653;29;19922;-60
2024/01/16 05:34:55;;;;;;;8.30;4.07;;;-3.80;99.90;;;;;;4930362;28;20441;-59
2024/01/16 05:37:22;;;;;;;11.43;5.10;;;-3.80;99.90;;;;;;4955073;29;20470;-60
2024/01/16 05:39:49;;;;;;;17.55;6.57;;;-3.80;99.90;;;;;;4947838;29;20035;-59
2024/01/16 05:42:16;;;;;;;13.10;5.88;;;-3.80;99.90;;;;;;4958943;28;20035;-60
2024/01/16 05:44:43;;;;;;;8.93;3.60;;;-3.80;99.90;;;;;;4937246;29;20476;-60
2024/01/16 05:47:10;;;;;;;8.02;3.65;;;-4.00;99.90;;;;;;4953617;29;20098;-59
2024/01/16 05:49:37;;;;;;;;;;;-4.10;99.90;;;;;;4963436;28;20062;-59
2024/01/16 05:52:04;;;;;;;8.00;3.00;;;-4.30;99.90;;;;;;4940980;28;19981;-61
2024/01/16 05:54:31;;;;;;;8.30;3.22;;;-4.40;99.90;;;;;;4959244;28;20058;-59
2024/01/16 05:56:57;;;;;;;11.07;3.72;;;-4.50;99.90;;;;;;4952877;29;20039;-61
2024/01/16 05:59:25;;;;;;;11.65;3.85;;;-4.60;99.90;;;;;;4952472;29;20071;-60
2024/01/16 06:01:52;;;;;;;10.93;5.10;;;-4.40;99.90;;;;;;4934817;29;20114;-60
2024/01/16 06:04:19;;;;;;;17.13;6.75;;;-4.20;99.90;;;;;;4953416;28;20489;-59
2024/01/16 06:06:47;;;;;;;18.00;6.90;;;-4.10;99.90;;;;;;4952434;29;20047;-59
2024/01/16 06:09:15;;;;;;;18.35;6.03;;;-3.90;99.90;;;;;;4947006;29;20047;-59
2024/01/16 06:11:42;;;;;;;15.13;5.60;;;-3.80;99.90;;;;;;4950521;29;20114;-61
2024/01/16 06:14:09;;;;;;;12.63;5.88;;;-3.70;99.90;;;;;;4951369;28;20441;-65
2024/01/16 06:16:36;;;;;;;14.57;5.10;;;-3.60;99.90;;;;;;4955640;28;20277;-65
2024/01/16 06:19:04;;;;;;;18.17;6.20;;;-3.50;99.90;;;;;;4956316;28;20347;-65
2024/01/16 06:21:31;;;;;;;20.65;6.68;;;-3.40;99.90;;;;;;4935706;29;20058;-65
2024/01/16 06:23:58;;;;;;;13.10;4.13;;;-3.40;99.90;;;;;;4946572;29;20062;-65
2024/01/16 06:26:25;;;;;;;12.88;5.28;;;-3.40;99.90;;;;;;4953883;28;20039;-65
2024/01/16 06:28:52;;;;;;;11.57;4.68;;;-3.50;99.90;;;;;;4954049;29;20043;-65
2024/01/16 06:31:19;;;;;;;9.32;4.22;;;-3.60;99.90;;;;;;4954206;29;20047;-65
2024/01/16 06:33:45;;;;;;;9.95;3.70;;;-3.60;99.90;;;;;;4949020;28;20404;-65
2024/01/16 06:36:13;;;;;;;;;;;-3.60;99.90;;;;;;4951028;29;20039;-65
2024/01/16 06:38:40;;;;;;;10.23;4.05;;;-3.70;99.90;;;;;;4949663;29;19933;-65
2024/01/16 06:41:08;;;;;;;12.38;4.60;;;-3.60;99.90;;;;;;4949373;29;20045;-65
2024/01/16 06:43:35;;;;;;;9.93;4.78;;;-3.50;99.90;;;;;;4950493;28;20090;-65
2024/01/16 06:46:01;;;;;;;;;;;-3.50;99.90;;;;;;4950733;28;20579;-65
2024/01/16 06:48:28;;;;;;;13.95;4.18;;;-3.40;99.90;;;;;;4949892;29;20372;-65
2024/01/16 06:50:56;;;;;;;12.48;5.13;;;-3.40;99.90;;;;;;4948285;29;20043;-65
2024/01/16 06:53:23;;;;;;;9.75;4.88;;;-3.30;99.90;;;;;;4949381;28;20596;-65
2024/01/16 06:55:50;;;;;;;10.30;4.28;;;-3.30;99.90;;;;;;4949378;28;20043;-65
2024/01/16 06:58:17;;;;;;;9.20;4.18;;;-3.30;99.90;;;;;;4950251;29;20046;-65
2024/01/16 07:00:44;;;;;;;15.57;4.35;;;-3.30;99.90;;;;;;4948075;29;20138;-65
2024/01/16 07:03:11;;;;;;;9.95;4.80;;;-3.30;99.90;;;;;;4948850;29;20055;-66
2024/01/16 07:05:40;;;;;;;16.80;7.22;;;-3.30;99.90;;;;;;4947243;28;20144;-65
2024/01/16 07:08:07;;;;;;;17.52;6.45;;;-3.30;99.90;;;;;;4948845;29;20047;-65
2024/01/16 07:10:35;;;;;;;;;;;-3.20;99.90;;;;;;4950352;29;20054;-65
2024/01/16 07:13:02;;;;;;;11.57;4.53;;;-3.20;99.90;;;;;;4949060;28;19937;-65
2024/01/16 07:15:29;;;;;;;12.55;4.13;;;-3.20;99.90;;;;;;4949276;28;20130;-65
2024/01/16 07:17:56;;;;;;;15.60;4.18;;;-3.30;99.90;;;;;;4948605;29;20050;-65
2024/01/16 07:20:23;;;;;;;16.42;7.38;;;-3.40;99.90;;;;;;4950864;29;20039;-65
2024/01/16 07:22:50;;;;;;;31.20;10.55;;;-3.30;99.90;;;;;;4952170;29;20051;-65
2024/01/16 07:25:17;;;;;;;33.40;11.35;;;-3.20;99.90;;;;;;4948023;28;20496;-65
2024/01/16 07:27:46;;;;;;;27.13;10.77;;;-3.20;99.90;;;;;;4953201;29;20047;-65
2024/01/16 07:30:13;;;;;;;38.03;12.88;;;-3.00;99.90;;;;;;4953456;29;20058;-65
2024/01/16 07:32:40;;;;;;;28.25;12.80;;;-2.90;99.90;;;;;;4950081;29;20051;-65
2024/01/16 07:35:07;;;;;;;23.88;10.05;;;-2.80;99.90;;;;;;4953058;28;20047;-65
2024/01/16 07:37:34;;;;;;;;;;;-2.80;99.90;;;;;;4951675;28;20043;-65
2024/01/16 07:40:01;;;;;;;21.10;9.05;;;-2.80;99.90;;;;;;4953138;29;19922;-65
2024/01/16 07:42:33;;;;;;;20.73;10.05;;;-2.70;99.90;;;;;;4952820;29;20031;-65
2024/01/16 07:45:04;;;;;;;17.13;7.72;;;-2.70;99.90;;;;;;4935579;29;20047;-65
2024/01/16 07:47:31;;;;;;;11.13;4.90;;;-2.70;99.90;;;;;;4948185;29;20082;-65
2024/01/16 07:49:59;;;;;;;22.27;8.82;;;-2.90;99.90;;;;;;4948087;29;20073;-65
2024/01/16 07:52:28;;;;;;;19.67;8.48;;;-3.10;99.90;;;;;;4948755;29;20119;-65
2024/01/16 07:54:55;;;;;;;17.48;7.82;;;-3.20;99.90;;;;;;4941554;29;20063;-65
2024/01/16 07:57:21;;;;;;;17.30;7.20;;;-3.30;99.90;;;;;;4944981;29;20039;-65
2024/01/16 07:59:48;;;;;;;20.10;7.10;;;-3.40;99.90;;;;;;4949848;29;20035;-65
2024/01/16 08:02:15;;;;;;;16.25;7.07;;;-3.40;99.90;;;;;;4945814;29;20040;-65
2024/01/16 08:04:42;;;;;;;22.92;8.27;;;-3.40;99.90;;;;;;4952839;28;20129;-65
2024/01/16 08:07:09;;;;;;;18.73;7.43;;;-3.50;99.90;;;;;;4943875;29;20083;-65
2024/01/16 08:09:36;;;;;;;21.58;8.85;;;-3.40;99.90;;;;;;4950868;29;20507;-65
2024/01/16 08:12:02;;;;;;;;;;;-3.30;99.90;;;;;;4950374;29;20051;-65
2024/01/16 08:14:29;;;;;;;28.33;13.63;;;-3.30;99.90;;;;;;4945720;28;20380;-65
2024/01/16 08:16:56;;;;;;;14.90;7.07;;;-3.20;99.90;;;;;;4952754;29;20043;-65
2024/01/16 08:19:23;;;;;;;20.15;7.15;;;-3.20;99.90;;;;;;4952395;29;20046;-65
2024/01/16 08:21:50;;;;;;;28.05;8.30;;;-3.30;99.90;;;;;;4952120;29;20043;-65
2024/01/16 08:24:16;;;;;;;21.02;9.07;;;-3.30;99.90;;;;;;4935659;28;20050;-65
2024/01/16 08:26:43;;;;;;;27.27;10.10;;;-3.20;99.90;;;;;;4952652;29;20080;-65
2024/01/16 08:29:10;;;;;;;21.25;7.25;;;-3.10;99.90;;;;;;4951929;29;20138;-65
2024/01/16 08:31:37;;;;;;;28.65;7.25;;;-3.20;99.90;;;;;;4948936;29;20043;-65
2024/01/16 08:34:04;;;;;;;;;;;-3.30;99.90;;;;;;4941643;29;20051;-65
2024/01/16 08:36:31;;;;;;;21.85;10.43;;;-3.30;99.90;;;;;;4952525;29;19981;-65
2024/01/16 08:38:58;;;;;;;35.00;12.95;;;-3.30;99.90;;;;;;4945174;29;20409;-65
2024/01/16 08:41:24;;;;;;;30.10;10.82;;;-3.20;99.90;;;;;;4952011;29;20050;-65
2024/01/16 08:43:51;;;;;;;34.38;12.35;;;-3.10;99.90;;;;;;4945895;29;20442;-65
2024/01/16 08:46:19;;;;;;;26.20;10.07;;;-2.80;99.90;;;;;;4951576;28;20059;-65
2024/01/16 08:48:46;;;;;;;29.00;9.63;;;-2.50;99.90;;;;;;4944585;28;20409;-65
2024/01/16 08:51:14;;;;;;;15.63;7.35;;;-2.30;99.90;;;;;;4956082;29;20054;-65
2024/01/16 08:53:41;;;;;;;;;;;-2.00;99.90;;;;;;4956818;28;20366;-65
2024/01/16 08:56:09;;;;;;;15.40;7.78;;;-1.90;99.90;;;;;;4955880;29;19930;-65
2024/01/16 08:58:37;;;;;;;;;;;-1.80;99.90;;;;;;4955283;29;20401;-65
2024/01/16 09:01:05;;;;;;;;;;;-1.70;99.90;;;;;;4948572;29;19978;-65
2024/01/16 09:03:33;;;;;;;15.00;6.20;;;-1.70;99.90;;;;;;4956029;28;19929;-65
2024/01/16 09:06:00;;;;;;;17.27;8.05;;;-1.70;99.90;;;;;;4938243;29;20090;-65
2024/01/16 09:08:27;;;;;;;22.08;8.60;;;-1.70;99.90;;;;;;4955974;29;20133;-65
2024/01/16 09:10:54;;;;;;;17.05;8.02;;;-1.70;99.90;;;;;;4950532;29;20039;-65
2024/01/16 09:13:23;;;;;;;17.88;8.38;;;-1.60;99.90;;;;;;4955540;29;20054;-65
2024/01/16 09:15:50;;;;;;;15.80;7.68;;;-1.60;99.90;;;;;;4946856;28;20055;-65
2024/01/16 09:18:16;;;;;;;19.55;8.18;;;-1.50;99.90;;;;;;4955384;29;20050;-65
2024/01/16 09:20:43;;;;;;;23.27;9.63;;;-1.20;99.90;;;;;;4953393;29;20366;-65
2024/01/16 09:23:10;;;;;;;22.27;8.90;;;-1.10;99.90;;;;;;4955224;29;20053;-65
2024/01/16 09:25:38;;;;;;;13.95;6.90;;;-0.90;99.90;;;;;;4950790;28;20044;-65
2024/01/16 09:28:04;;;;;;;16.50;7.55;;;-0.80;99.90;;;;;;4945696;29;20051;-65
2024/01/16 09:30:33;;;;;;;18.70;7.95;;;-0.70;99.90;;;;;;4946820;29;20389;-65
2024/01/16 09:33:00;;;;;;;22.05;9.15;;;-0.70;99.90;;;;;;4954210;29;20047;-65
2024/01/16 09:35:26;;;;;;;13.63;6.18;;;-0.70;99.90;;;;;;4947570;28;20107;-65
2024/01/16 09:37:53;;;;;;;11.77;5.70;;;-0.80;99.90;;;;;;4944945;29;20040;-65
2024/01/16 09:40:20;;;;;;;15.90;5.90;;;-0.80;99.90;;;;;;4953576;29;20051;-65
2024/01/16 09:42:47;;;;;;;13.77;6.50;;;-0.80;99.90;;;;;;4954693;29;20041;-65
2024/01/16 09:45:19;;;;;;;13.27;6.70;;;-0.70;99.90;;;;;;4953435;29;20079;-65
2024/01/16 09:47:49;;;;;;;11.98;5.70;;;-0.70;99.90;;;;;;4942186;29;20067;-65
2024/01/16 09:50:20;;;;;;;12.85;5.68;;;-0.50;99.90;;;;;;4951010;29;20051;-65
2024/01/16 09:52:47;;;;;;;9.02;5.18;;;-0.40;99.90;;;;;;4948747;29;20329;-65
2024/01/16 09:55:15;;;;;;;11.07;5.07;;;-0.60;99.90;;;;;;4955001;28;20459;-65
2024/01/16 09:57:45;;;;;;;12.02;5.63;;;-0.70;99.90;;;;;;4954998;29;20105;-65
2024/01/16 10:00:12;;;;;;;11.15;6.07;;;-0.70;99.90;;;;;;4947842;28;20040;-65
2024/01/16 10:02:40;;;;;;;10.85;5.20;;;-0.50;99.90;;;;;;4954181;29;20039;-65
2024/01/16 10:05:09;;;;;;;20.17;6.60;;;-0.60;99.90;;;;;;4954511;28;20452;-65
2024/01/16 10:07:44;;;;;;;14.55;7.20;;;-0.50;99.90;;;;;;4945002;28;20057;-65
2024/01/16 10:10:11;;;;;;;19.27;8.88;;;-0.30;99.90;;;;;;4951587;29;20505;-65
2024/01/16 10:12:40;;;;;;;20.70;8.30;;;-0.10;99.90;;;;;;4954618;29;20077;-65
2024/01/16 10:15:08;;;;;;;20.88;8.68;;;0.00;99.90;;;;;;4954859;28;20488;-65
2024/01/16 10:17:39;;;;;;;20.42;8.27;;;0.20;99.90;;;;;;4929644;29;20071;-65
2024/01/16 10:20:13;;;;;;;20.30;8.30;;;0.30;99.90;;;;;;4947175;29;20048;-65
2024/01/16 10:22:53;;;;;;;32.28;10.93;;;0.30;99.90;;;;;;4938218;29;20039;-66
2024/01/16 10:25:21;;;;;;;28.77;11.32;;;0.40;99.90;;;;;;4954512;28;20043;-66
2024/01/16 10:27:48;;;;;;;16.70;8.00;;;0.40;99.90;;;;;;4954468;29;20071;-66
2024/01/16 10:30:20;;;;;;;17.80;6.45;;;0.50;99.90;;;;;;4947889;29;20111;-66
2024/01/16 10:32:48;;;;;;;12.82;5.80;;;0.70;99.90;;;;;;4951907;29;20043;-66
2024/01/16 10:35:15;;;;;;;13.88;6.00;;;0.70;99.90;;;;;;4953384;28;20485;-66
2024/01/16 10:37:53;;;;;;;8.65;4.90;;;0.80;99.90;;;;;;4946636;29;20039;-66
2024/01/16 10:40:22;;;;;;;11.52;5.63;;;0.70;99.90;;;;;;4952697;29;20512;-66
2024/01/16 10:43:03;;;;;;;10.10;4.50;;;0.80;99.90;;;;;;4948742;29;20075;-65
2024/01/16 10:45:30;;;;;;;8.75;4.53;;;0.60;99.90;;;;;;4953019;28;20039;-65
2024/01/16 10:48:05;;;;;;;10.10;5.10;;;0.30;99.90;;;;;;4945972;29;20047;-65
2024/01/16 10:50:34;;;;;;;9.40;4.78;;;0.40;99.90;;;;;;4952210;29;20055;-65
2024/01/16 10:53:04;;;;;;;14.70;6.35;;;0.70;99.90;;;;;;4953737;29;20062;-65
2024/01/16 10:55:33;;;;;;;14.38;8.50;;;0.80;99.90;;;;;;4953859;28;20049;-65
2024/01/16 10:58:04;;;;;;;12.05;6.30;;;1.00;99.90;;;;;;4954057;29;20456;-65
2024/01/16 11:00:35;;;;;;;13.27;5.70;;;1.20;99.90;;;;;;4946073;29;20065;-65
2024/01/16 11:03:18;;;;;;;10.65;4.60;;;1.30;99.90;;;;;;4951681;29;20070;-66
2024/01/16 11:05:47;;;;;;;12.02;5.85;;;1.40;99.90;;;;;;4953732;28;20047;-66
2024/01/16 11:08:16;;;;;;;12.18;5.75;;;1.50;99.90;;;;;;4953643;29;20453;-66
2024/01/16 11:10:44;;;;;;;12.45;5.18;;;1.40;99.90;;;;;;4951045;29;20047;-66
2024/01/16 11:13:12;;;;;;;8.23;4.75;;;1.10;99.90;;;;;;4952940;28;20050;-66
2024/01/16 11:15:41;;;;;;;7.43;4.32;;;0.80;99.90;;;;;;4952930;28;20039;-66
2024/01/16 11:18:09;;;;;;;13.60;5.45;;;0.70;99.90;;;;;;4953742;29;20043;-66
2024/01/16 11:20:37;;;;;;;11.90;5.10;;;0.50;99.90;;;;;;4952307;29;20511;-66
2024/01/16 11:23:24;;;;;;;9.13;3.78;;;0.50;99.90;;;;;;4953355;29;20047;-66
2024/01/16 11:25:51;;;;;;;14.27;5.13;;;0.60;99.90;;;;;;4949327;28;20512;-66
2024/01/16 11:28:19;;;;;;;7.13;3.63;;;0.60;99.90;;;;;;4953359;29;20058;-66
2024/01/16 11:30:47;;;;;;;12.25;5.10;;;0.70;99.90;;;;;;4953406;29;20040;-66
2024/01/16 11:33:32;;;;;;;10.10;5.68;;;0.80;99.90;;;;;;4945084;29;20047;-66
2024/01/16 11:36:00;;;;;;;10.32;5.35;;;0.90;99.90;;;;;;4936074;29;20047;-66
2024/01/16 11:38:32;;;;;;;11.38;5.57;;;0.90;99.90;;;;;;4952085;29;20103;-66
2024/01/16 11:40:59;;;;;;;18.77;8.02;;;0.90;99.90;;;;;;4946801;29;20475;-66
2024/01/16 11:43:36;;;;;;;13.07;5.95;;;1.00;99.90;;;;;;4952906;29;20477;-66
2024/01/16 11:46:09;;;;;;;11.40;5.37;;;1.40;99.90;;;;;;4936184;29;20054;-66
2024/01/16 11:48:38;;;;;;;15.30;5.38;;;1.70;99.90;;;;;;4940907;29;20086;-66
2024/01/16 11:51:23;;;;;;;13.18;6.22;;;2.00;99.90;;;;;;4953277;29;20043;-66
2024/01/16 11:53:50;;;;;;;14.07;5.78;;;2.10;99.90;;;;;;4949174;28;20053;-66
2024/01/16 11:56:32;;;;;;;11.40;5.13;;;2.20;99.90;;;;;;4948736;29;20039;-66
2024/01/16 11:59:12;;;;;;;10.05;5.03;;;2.20;99.90;;;;;;4945020;29;20470;-66
2024/01/16 12:01:44;;;;;;;12.02;4.93;;;2.10;99.90;;;;;;4952873;29;20063;-66
2024/01/16 12:04:11;;;;;;;11.18;4.95;;;2.10;99.90;;;;;;4950978;28;20055;-66
2024/01/16 12:06:40;;;;;;;12.02;5.47;;;2.10;99.90;;;;;;4947105;29;20050;-66
2024/01/16 12:09:12;;;;;;;9.27;5.00;;;2.10;99.90;;;;;;4952950;29;20090;-66
2024/01/16 12:11:47;;;;;;;9.18;4.35;;;2.00;99.90;;;;;;4952515;29;20043;-66
2024/01/16 12:14:14;;;;;;;9.57;5.22;;;2.00;99.90;;;;;;4950957;28;20047;-66
2024/01/16 12:16:41;;;;;;;11.50;5.20;;;2.10;99.90;;;;;;4952375;29;20071;-66
2024/01/16 12:19:09;;;;;;;8.45;4.25;;;2.20;99.90;;;;;;4952658;29;20519;-66
2024/01/16 12:21:40;;;;;;;9.15;4.85;;;1.80;99.90;;;;;;4949274;29;20051;-66
2024/01/16 12:24:07;;;;;;;9.35;4.93;;;1.60;99.90;;;;;;4953424;28;20463;-66
2024/01/16 12:26:39;;;;;;;12.88;5.72;;;1.50;99.90;;;;;;4955966;29;20079;-66
2024/01/16 12:29:06;;;;;;;12.55;6.10;;;1.50;99.90;;;;;;4948492;29;20059;-66
2024/01/16 12:31:33;;;;;;;;;;;1.50;99.90;;;;;;4956478;29;20051;-66
2024/01/16 12:34:09;;;;;;;13.75;5.78;;;1.50;99.90;;;;;;4952414;28;19930;-66
2024/01/16 12:36:37;;;;;;;8.82;3.35;;;1.50;99.90;;;;;;4956381;29;20073;-66
2024/01/16 12:39:05;;;;;;;10.25;5.05;;;1.70;99.90;;;;;;4954394;29;20470;-66
2024/01/16 12:41:34;;;;;;;;;;;1.80;99.90;;;;;;4955441;29;20047;-66
2024/01/16 12:44:08;;;;;;;8.93;5.18;;;2.10;99.90;;;;;;4950629;28;19970;-66
2024/01/16 12:47:03;;;;;;;14.57;6.00;;;2.30;99.90;;;;;;4956506;29;20381;-66
2024/01/16 12:49:30;;;;;;;15.07;5.75;;;2.50;99.90;;;;;;4951277;29;20118;-66
2024/01/16 12:52:18;;;;;;;;;;;2.60;99.90;;;;;;4956150;29;20138;-66
2024/01/16 12:54:45;;;;;;;9.23;4.95;;;2.70;99.90;;;;;;4952100;28;19922;-66